Time;durP1;ratioP1;P1;durP2;ratioP2;P2;SDS_P1;SDS_P2;PMS_P1;PMS_P2;Temp;Humidity;BMP_temperature;BMP_pressure;BME280_temperature;BME280_humidity;BME280_pressure;Samples;Min_cycle;Max_cycle;Signal;HPM_P1;HPM_P2
2023/09/13 00:00:03;;;;;;;4.85;3.15;;;21.40;80.70;;;;;;948050;148;27463;-73
2023/09/13 00:02:29;;;;;;;2.95;2.75;;;21.40;81.20;;;;;;946833;149;27313;-72
2023/09/13 00:04:56;;;;;;;2.92;2.72;;;21.30;81.80;;;;;;947512;149;27363;-71
2023/09/13 00:07:22;;;;;;;3.20;2.90;;;21.30;82.30;;;;;;946613;147;27249;-71
2023/09/13 00:09:49;;;;;;;3.52;3.22;;;21.30;82.90;;;;;;946372;149;27448;-74
2023/09/13 00:12:15;;;;;;;3.25;3.05;;;21.30;83.50;;;;;;944753;148;27477;-71
2023/09/13 00:14:42;;;;;;;3.12;2.83;;;21.30;83.90;;;;;;945693;149;27304;-73
2023/09/13 00:17:08;;;;;;;3.35;2.65;;;21.30;84.50;;;;;;947584;149;27686;-72
2023/09/13 00:19:37;;;;;;;2.95;2.67;;;21.20;85.00;;;;;;948066;149;27336;-71
2023/09/13 00:22:02;;;;;;;3.65;3.35;;;21.20;85.60;;;;;;947676;148;27318;-71
2023/09/13 00:24:28;;;;;;;3.45;3.25;;;21.20;86.30;;;;;;935462;149;27270;-71
2023/09/13 00:26:55;;;;;;;3.33;2.83;;;21.10;87.00;;;;;;933500;149;27378;-73
2023/09/13 00:29:21;;;;;;;3.65;3.25;;;21.10;87.90;;;;;;940841;146;27332;-75
2023/09/13 00:31:48;;;;;;;3.55;2.95;;;21.10;88.50;;;;;;944857;146;27223;-75
2023/09/13 00:34:15;;;;;;;3.10;2.87;;;21.10;89.40;;;;;;933525;149;27421;-75
2023/09/13 00:36:41;;;;;;;3.17;2.98;;;21.00;90.00;;;;;;932761;149;27356;-74
2023/09/13 00:39:08;;;;;;;3.77;3.15;;;21.00;90.20;;;;;;956907;147;27328;-75
2023/09/13 00:41:34;;;;;;;3.35;3.05;;;21.00;90.50;;;;;;944657;149;27380;-75
2023/09/13 00:44:01;;;;;;;2.92;2.72;;;20.90;90.80;;;;;;947341;147;27396;-74
2023/09/13 00:46:27;;;;;;;3.70;2.87;;;20.90;91.20;;;;;;951789;147;27387;-75
2023/09/13 00:48:54;;;;;;;3.30;3.00;;;20.90;91.60;;;;;;951391;147;27331;-73
2023/09/13 00:51:21;;;;;;;3.62;2.95;;;20.80;92.00;;;;;;949633;146;27487;-75
2023/09/13 00:53:47;;;;;;;3.52;3.33;;;20.80;92.50;;;;;;950413;147;27312;-75
2023/09/13 00:56:14;;;;;;;3.22;3.00;;;20.80;92.90;;;;;;948597;147;27337;-75
2023/09/13 00:58:40;;;;;;;3.40;3.10;;;20.70;93.30;;;;;;943668;147;27447;-74
2023/09/13 01:01:09;;;;;;;3.37;3.08;;;20.70;93.70;;;;;;928284;147;27416;-75
2023/09/13 01:03:34;;;;;;;4.03;3.62;;;20.70;94.10;;;;;;904935;153;27394;-75
2023/09/13 01:06:00;;;;;;;3.58;3.27;;;20.70;94.40;;;;;;916081;152;27372;-75
2023/09/13 01:08:27;;;;;;;5.05;3.65;;;20.70;94.70;;;;;;903648;156;27532;-74
2023/09/13 01:10:53;;;;;;;3.55;3.27;;;20.60;95.00;;;;;;943554;149;27425;-75
2023/09/13 01:13:20;;;;;;;4.35;3.95;;;20.60;95.30;;;;;;898450;152;27456;-75
2023/09/13 01:16:05;;;;;;;4.75;3.62;;;20.60;95.50;;;;;;915026;153;27375;-74
2023/09/13 01:18:31;;;;;;;3.58;3.27;;;20.60;95.80;;;;;;938753;149;27292;-74
2023/09/13 01:21:05;;;;;;;3.83;3.10;;;20.60;95.80;;;;;;938888;148;27316;-75
2023/09/13 01:23:48;;;;;;;3.42;3.20;;;20.50;96.10;;;;;;940241;148;27339;-76
2023/09/13 01:26:40;;;;;;;3.30;3.10;;;20.50;96.50;;;;;;939214;149;27709;-75
2023/09/13 01:29:08;;;;;;;3.55;3.15;;;20.40;96.60;;;;;;939487;148;27422;-75
2023/09/13 01:31:33;;;;;;;3.70;3.40;;;20.40;96.90;;;;;;946203;148;27323;-75
2023/09/13 01:33:59;;;;;;;4.00;3.20;;;20.40;97.30;;;;;;941985;148;27354;-74
2023/09/13 01:36:28;;;;;;;3.87;3.52;;;20.30;97.60;;;;;;937562;148;27420;-74
2023/09/13 01:38:53;;;;;;;3.60;3.30;;;20.30;97.90;;;;;;939607;148;27409;-74
2023/09/13 01:41:28;;;;;;;3.80;3.50;;;20.30;98.30;;;;;;940701;148;27414;-75
2023/09/13 01:43:55;;;;;;;3.30;3.00;;;20.30;98.60;;;;;;940695;148;27333;-74
2023/09/13 01:46:27;;;;;;;3.65;3.40;;;20.30;98.80;;;;;;938513;148;28073;-74
2023/09/13 01:48:50;;;;;;;4.33;3.50;;;20.30;99.00;;;;;;939936;149;27884;-74
2023/09/13 01:51:17;;;;;;;3.95;3.42;;;20.30;99.10;;;;;;941092;148;27267;-74
2023/09/13 01:53:44;;;;;;;3.67;3.37;;;20.30;99.40;;;;;;939751;148;27485;-75
2023/09/13 01:56:10;;;;;;;3.20;3.00;;;20.30;99.50;;;;;;940475;148;27349;-74
2023/09/13 01:58:37;;;;;;;3.87;3.52;;;20.30;99.70;;;;;;938451;148;27870;-74
2023/09/13 02:01:03;;;;;;;3.22;3.02;;;20.30;99.90;;;;;;943448;147;27424;-74
2023/09/13 02:03:30;;;;;;;4.40;3.75;;;20.30;99.90;;;;;;939101;148;27326;-74
2023/09/13 02:05:57;;;;;;;3.95;3.65;;;20.30;99.90;;;;;;939250;148;27308;-74
2023/09/13 02:08:23;;;;;;;3.50;3.30;;;20.40;99.90;;;;;;937838;149;27356;-74
2023/09/13 02:10:50;;;;;;;3.72;3.45;;;20.30;99.90;;;;;;939183;148;27314;-74
2023/09/13 02:13:16;;;;;;;3.70;3.40;;;20.40;99.90;;;;;;940115;148;27423;-74
2023/09/13 02:15:43;;;;;;;3.62;3.33;;;20.30;99.90;;;;;;941035;148;27246;-74
2023/09/13 02:18:10;;;;;;;3.90;3.50;;;20.40;99.90;;;;;;940281;149;27330;-74
2023/09/13 02:20:36;;;;;;;4.12;3.83;;;20.30;99.90;;;;;;937774;148;27358;-74
2023/09/13 02:23:03;;;;;;;3.70;3.35;;;20.30;99.90;;;;;;940767;148;27297;-74
2023/09/13 02:25:29;;;;;;;3.35;3.10;;;20.30;99.90;;;;;;938297;149;27358;-74
2023/09/13 02:27:56;;;;;;;4.37;3.98;;;20.20;99.90;;;;;;940165;149;27371;-74
2023/09/13 02:30:22;;;;;;;3.83;3.52;;;20.20;99.90;;;;;;939604;148;27356;-74
2023/09/13 02:32:49;;;;;;;4.58;3.67;;;20.20;99.90;;;;;;939063;148;27253;-74
2023/09/13 02:35:16;;;;;;;4.47;4.12;;;20.20;99.90;;;;;;941416;148;27433;-74
2023/09/13 02:37:43;;;;;;;5.37;4.15;;;20.20;99.90;;;;;;938779;148;27332;-74
2023/09/13 02:40:09;;;;;;;4.70;4.12;;;20.20;99.90;;;;;;939607;149;27354;-74
2023/09/13 02:42:37;;;;;;;4.35;3.95;;;20.10;99.90;;;;;;939071;149;27362;-74
2023/09/13 02:45:02;;;;;;;4.55;4.12;;;20.10;99.90;;;;;;939229;148;27317;-74
2023/09/13 02:47:29;;;;;;;4.53;4.12;;;20.10;99.90;;;;;;941310;148;27285;-74
2023/09/13 02:49:55;;;;;;;4.30;3.90;;;20.20;99.90;;;;;;941090;149;27450;-76
2023/09/13 02:52:31;;;;;;;3.85;3.55;;;20.10;99.90;;;;;;941459;148;27402;-74
2023/09/13 02:54:57;;;;;;;3.90;3.60;;;20.10;99.90;;;;;;938757;148;27285;-76
2023/09/13 02:57:24;;;;;;;4.22;3.85;;;20.10;99.90;;;;;;940038;148;27292;-75
2023/09/13 02:59:51;;;;;;;3.80;3.50;;;20.10;99.90;;;;;;942096;148;27439;-74
2023/09/13 03:02:17;;;;;;;4.55;3.65;;;20.10;99.90;;;;;;946973;148;27368;-75
2023/09/13 03:04:44;;;;;;;4.55;4.17;;;20.10;99.90;;;;;;945843;149;28357;-75
2023/09/13 03:07:10;;;;;;;4.08;3.77;;;20.10;99.90;;;;;;917193;154;27305;-75
2023/09/13 03:09:37;;;;;;;4.47;3.58;;;20.00;99.90;;;;;;934071;151;27375;-74
2023/09/13 03:12:05;;;;;;;4.33;4.03;;;20.00;99.90;;;;;;934913;150;27362;-76
2023/09/13 03:14:30;;;;;;;4.28;3.87;;;20.00;99.90;;;;;;933394;150;27475;-75
2023/09/13 03:16:57;;;;;;;4.03;3.70;;;20.00;99.90;;;;;;935185;150;27509;-75
2023/09/13 03:19:23;;;;;;;4.15;3.85;;;20.00;99.90;;;;;;934034;150;27351;-74
2023/09/13 03:21:50;;;;;;;4.30;3.85;;;20.00;99.90;;;;;;934834;151;27374;-75
2023/09/13 03:24:16;;;;;;;4.47;4.10;;;20.00;99.90;;;;;;935806;150;27351;-75
2023/09/13 03:26:43;;;;;;;4.17;3.87;;;20.00;99.90;;;;;;934725;151;27442;-75
2023/09/13 03:29:10;;;;;;;4.62;4.05;;;20.00;99.90;;;;;;935896;150;27385;-75
2023/09/13 03:31:38;;;;;;;4.50;4.10;;;20.10;99.90;;;;;;938965;150;27868;-75
2023/09/13 03:34:03;;;;;;;3.92;3.52;;;20.10;99.90;;;;;;934743;150;27932;-76
2023/09/13 03:36:29;;;;;;;4.03;3.72;;;20.10;99.90;;;;;;935141;150;27268;-75
2023/09/13 03:38:56;;;;;;;3.98;3.58;;;20.20;99.90;;;;;;948884;150;27344;-76
2023/09/13 03:41:23;;;;;;;3.80;3.50;;;20.20;99.90;;;;;;948591;150;27293;-75
2023/09/13 03:43:49;;;;;;;3.83;3.55;;;20.20;99.90;;;;;;949233;150;27354;-76
2023/09/13 03:46:16;;;;;;;3.58;3.30;;;20.20;99.90;;;;;;949765;150;27694;-75
2023/09/13 03:48:42;;;;;;;3.87;3.52;;;20.20;99.90;;;;;;950090;150;27258;-75
2023/09/13 03:51:09;;;;;;;3.92;3.55;;;20.20;99.90;;;;;;949274;150;27488;-76
2023/09/13 03:53:35;;;;;;;3.60;3.30;;;20.20;99.90;;;;;;948748;150;27340;-74
2023/09/13 03:56:02;;;;;;;3.40;3.10;;;20.20;99.90;;;;;;933844;150;27771;-75
2023/09/13 03:58:31;;;;;;;3.60;3.35;;;20.10;99.90;;;;;;929554;150;27323;-75
2023/09/13 04:00:58;;;;;;;4.28;3.87;;;20.10;99.90;;;;;;941684;150;27285;-74
2023/09/13 04:03:25;;;;;;;3.87;3.40;;;20.00;99.90;;;;;;942631;149;27493;-75
2023/09/13 04:05:51;;;;;;;3.65;3.42;;;20.00;99.90;;;;;;947337;148;27411;-75
2023/09/13 04:08:18;;;;;;;4.35;3.50;;;20.00;99.90;;;;;;946097;149;27272;-75
2023/09/13 04:10:44;;;;;;;4.03;3.70;;;19.90;99.90;;;;;;946827;149;27313;-75
2023/09/13 04:13:11;;;;;;;3.45;3.25;;;19.90;99.90;;;;;;944748;149;27377;-75
2023/09/13 04:15:38;;;;;;;3.15;2.95;;;19.90;99.90;;;;;;944088;149;27339;-75
2023/09/13 04:18:04;;;;;;;4.33;3.90;;;19.90;99.90;;;;;;942881;149;27322;-76
2023/09/13 04:20:31;;;;;;;3.52;3.22;;;19.90;99.90;;;;;;944829;149;27357;-75
2023/09/13 04:22:57;;;;;;;3.30;3.05;;;19.90;99.90;;;;;;943857;149;27443;-75
2023/09/13 04:25:24;;;;;;;6.47;2.98;;;20.00;99.90;;;;;;943722;149;27558;-76
2023/09/13 04:27:50;;;;;;;3.00;2.80;;;20.00;99.90;;;;;;943134;149;27301;-76
2023/09/13 04:30:17;;;;;;;3.27;2.90;;;20.00;99.90;;;;;;943863;149;27436;-76
2023/09/13 04:32:44;;;;;;;3.33;2.87;;;20.10;99.90;;;;;;944960;149;27382;-76
2023/09/13 04:35:11;;;;;;;3.17;2.90;;;20.20;99.90;;;;;;942822;149;27404;-74
2023/09/13 04:37:37;;;;;;;3.27;2.98;;;20.20;99.90;;;;;;943553;149;27847;-75
2023/09/13 04:40:06;;;;;;;2.98;2.77;;;20.20;99.90;;;;;;943118;149;27361;-75
2023/09/13 04:42:36;;;;;;;3.10;2.90;;;20.30;99.90;;;;;;944702;149;27285;-76
2023/09/13 04:45:03;;;;;;;2.95;2.75;;;20.30;99.90;;;;;;942857;149;27398;-76
2023/09/13 04:47:29;;;;;;;3.27;2.87;;;20.40;99.90;;;;;;943936;151;27360;-76
2023/09/13 04:49:55;;;;;;;2.75;2.55;;;20.40;99.90;;;;;;944813;149;27342;-76
2023/09/13 04:52:22;;;;;;;4.10;2.35;;;20.40;99.90;;;;;;944322;149;27322;-75
2023/09/13 04:54:48;;;;;;;3.85;3.55;;;20.50;99.90;;;;;;943994;149;28074;-75
2023/09/13 04:57:15;;;;;;;3.08;2.70;;;20.50;99.90;;;;;;945302;149;27364;-75
2023/09/13 04:59:44;;;;;;;3.20;2.90;;;20.50;99.90;;;;;;944873;149;27333;-76
2023/09/13 05:02:14;;;;;;;5.08;3.75;;;20.50;99.90;;;;;;944252;149;27330;-76
2023/09/13 05:04:40;;;;;;;3.15;2.55;;;20.60;99.90;;;;;;944219;149;27390;-75
2023/09/13 05:07:07;;;;;;;2.83;2.62;;;20.60;99.90;;;;;;944888;149;27360;-71
2023/09/13 05:09:34;;;;;;;2.83;2.62;;;20.60;99.90;;;;;;944138;149;27400;-72
2023/09/13 05:12:00;;;;;;;2.83;2.62;;;20.60;99.90;;;;;;943726;149;27382;-72
2023/09/13 05:14:27;;;;;;;2.55;2.35;;;20.70;99.90;;;;;;944115;149;27418;-73
2023/09/13 05:16:53;;;;;;;2.65;2.45;;;20.70;99.90;;;;;;943050;149;27369;-73
2023/09/13 05:19:20;;;;;;;2.58;2.37;;;20.70;99.90;;;;;;943645;149;27369;-72
2023/09/13 05:21:46;;;;;;;2.67;2.40;;;20.70;99.90;;;;;;942744;149;27367;-71
2023/09/13 05:24:13;;;;;;;2.72;2.50;;;20.70;99.90;;;;;;944161;149;27336;-72
2023/09/13 05:26:40;;;;;;;2.72;2.52;;;20.80;99.90;;;;;;944200;149;27446;-75
2023/09/13 05:29:06;;;;;;;2.75;2.40;;;20.80;99.90;;;;;;944933;149;27361;-72
2023/09/13 05:31:33;;;;;;;2.55;2.35;;;20.80;99.90;;;;;;943811;150;27348;-72
2023/09/13 05:33:59;;;;;;;2.90;2.70;;;20.90;99.90;;;;;;943726;149;27921;-73
2023/09/13 05:36:26;;;;;;;2.58;2.37;;;21.00;99.90;;;;;;943104;151;27438;-73
2023/09/13 05:38:53;;;;;;;2.80;2.60;;;21.00;99.90;;;;;;943887;149;27361;-72
2023/09/13 05:41:19;;;;;;;2.40;2.30;;;21.10;99.90;;;;;;943231;149;27466;-72
2023/09/13 05:43:46;;;;;;;2.70;2.50;;;21.10;99.90;;;;;;944459;149;27702;-73
2023/09/13 05:46:12;;;;;;;2.75;2.58;;;21.10;99.90;;;;;;943916;149;27481;-72
2023/09/13 05:48:39;;;;;;;2.60;2.40;;;21.20;99.90;;;;;;944597;149;27370;-75
2023/09/13 05:51:05;;;;;;;2.50;2.33;;;21.20;99.90;;;;;;944864;149;27361;-73
2023/09/13 05:53:32;;;;;;;2.65;2.45;;;21.20;99.90;;;;;;943819;149;27341;-72
2023/09/13 05:55:59;;;;;;;2.47;2.27;;;21.20;99.90;;;;;;943285;149;27345;-73
2023/09/13 05:58:25;;;;;;;2.83;2.62;;;21.30;99.90;;;;;;945006;149;27369;-75
2023/09/13 06:00:53;;;;;;;4.30;2.52;;;21.30;99.90;;;;;;944451;149;27387;-72
2023/09/13 06:03:18;;;;;;;5.08;2.35;;;21.40;99.90;;;;;;943657;149;27465;-72
2023/09/13 06:05:45;;;;;;;2.35;2.15;;;21.50;99.90;;;;;;936768;151;27275;-72
2023/09/13 06:08:12;;;;;;;2.75;2.55;;;21.50;99.90;;;;;;933578;151;27299;-73
2023/09/13 06:10:38;;;;;;;2.40;2.20;;;21.60;99.90;;;;;;937310;151;27801;-74
2023/09/13 06:13:05;;;;;;;2.80;2.60;;;21.70;99.90;;;;;;933579;151;27362;-72
2023/09/13 06:15:32;;;;;;;2.60;2.40;;;21.80;99.90;;;;;;929675;151;27261;-75
2023/09/13 06:17:58;;;;;;;3.22;2.50;;;21.80;99.90;;;;;;921240;151;27336;-76
2023/09/13 06:20:25;;;;;;;2.92;2.72;;;21.90;99.90;;;;;;930235;151;27449;-74
2023/09/13 06:22:51;;;;;;;2.87;2.60;;;21.90;99.90;;;;;;941789;149;27416;-75
2023/09/13 06:25:19;;;;;;;2.80;2.60;;;22.00;99.90;;;;;;940481;149;27286;-76
2023/09/13 06:27:44;;;;;;;3.20;3.00;;;22.10;99.90;;;;;;940279;149;27351;-75
2023/09/13 06:30:13;;;;;;;2.90;2.70;;;22.10;99.90;;;;;;920464;152;27720;-76
2023/09/13 06:32:38;;;;;;;2.90;2.70;;;22.20;99.90;;;;;;943058;149;27345;-76
2023/09/13 06:35:04;;;;;;;3.33;3.12;;;22.20;99.90;;;;;;946575;148;27791;-76
2023/09/13 06:37:31;;;;;;;2.72;2.25;;;22.30;99.90;;;;;;933834;149;27306;-75
2023/09/13 06:39:57;;;;;;;2.77;2.58;;;22.30;99.90;;;;;;946030;149;27236;-75
2023/09/13 06:42:24;;;;;;;4.25;2.77;;;22.40;99.90;;;;;;942030;151;27333;-76
2023/09/13 06:44:50;;;;;;;3.05;2.85;;;22.40;99.90;;;;;;931111;151;27806;-76
2023/09/13 06:47:17;;;;;;;2.92;2.50;;;22.50;99.90;;;;;;945019;148;27317;-75
2023/09/13 06:49:44;;;;;;;3.08;2.77;;;22.60;99.90;;;;;;946017;148;27306;-75
2023/09/13 06:52:10;;;;;;;2.77;2.58;;;22.60;99.90;;;;;;936703;152;27384;-74
2023/09/13 06:54:37;;;;;;;3.15;2.85;;;22.70;99.90;;;;;;933337;152;27459;-76
2023/09/13 06:57:05;;;;;;;4.33;3.00;;;22.80;99.90;;;;;;935607;152;27307;-76
2023/09/13 06:59:30;;;;;;;3.10;2.80;;;22.90;99.90;;;;;;928673;150;27305;-75
2023/09/13 07:01:57;;;;;;;3.83;2.75;;;22.90;99.90;;;;;;936042;150;27340;-75
2023/09/13 07:04:23;;;;;;;3.37;2.67;;;23.00;99.90;;;;;;951507;146;27499;-76
2023/09/13 07:06:50;;;;;;;2.67;2.47;;;23.10;99.90;;;;;;937669;149;27270;-75
2023/09/13 07:09:16;;;;;;;2.90;2.70;;;23.20;99.90;;;;;;942471;149;27714;-76
2023/09/13 07:11:43;;;;;;;2.98;2.25;;;23.30;99.90;;;;;;942162;149;27477;-75
2023/09/13 07:14:10;;;;;;;3.17;2.95;;;23.40;99.90;;;;;;953419;146;27355;-76
2023/09/13 07:16:37;;;;;;;2.52;2.33;;;23.50;99.80;;;;;;941098;148;28662;-76
2023/09/13 07:19:03;;;;;;;3.15;2.85;;;23.50;99.30;;;;;;937532;149;27389;-76
2023/09/13 07:21:29;;;;;;;4.03;2.35;;;23.50;98.90;;;;;;937940;148;27316;-76
2023/09/13 07:23:56;;;;;;;3.85;2.50;;;23.60;98.60;;;;;;944057;147;27347;-75
2023/09/13 07:26:23;;;;;;;3.10;2.77;;;23.60;98.40;;;;;;955612;146;27420;-73
2023/09/13 07:28:49;;;;;;;2.70;2.50;;;23.60;98.20;;;;;;934461;149;27334;-73
2023/09/13 07:31:16;;;;;;;2.60;2.40;;;23.60;98.20;;;;;;936979;149;27446;-73
2023/09/13 07:33:42;;;;;;;3.45;2.42;;;23.60;98.30;;;;;;937923;149;27282;-74
2023/09/13 07:36:09;;;;;;;2.65;2.35;;;23.60;98.50;;;;;;937002;148;27361;-73
2023/09/13 07:38:37;;;;;;;3.05;2.77;;;23.70;98.90;;;;;;941484;149;28502;-73
2023/09/13 07:41:03;;;;;;;4.05;2.90;;;23.80;98.90;;;;;;942880;149;27268;-72
2023/09/13 07:43:29;;;;;;;2.40;2.20;;;23.90;98.80;;;;;;942366;149;27742;-74
2023/09/13 07:45:55;;;;;;;2.42;2.30;;;23.90;98.20;;;;;;942321;149;27455;-73
2023/09/13 07:48:23;;;;;;;2.45;2.30;;;24.10;98.20;;;;;;942731;149;27345;-72
2023/09/13 07:50:48;;;;;;;3.25;3.05;;;24.20;98.00;;;;;;941124;149;27330;-72
2023/09/13 07:53:15;;;;;;;2.42;2.22;;;24.30;97.60;;;;;;942656;149;27350;-74
2023/09/13 07:55:42;;;;;;;2.70;2.45;;;24.40;97.30;;;;;;942495;149;27369;-76
2023/09/13 07:58:08;;;;;;;2.98;2.55;;;24.50;96.70;;;;;;942308;149;27444;-73
2023/09/13 08:00:35;;;;;;;3.33;2.92;;;24.60;96.30;;;;;;942246;149;27322;-74
2023/09/13 08:03:01;;;;;;;3.33;2.30;;;24.80;96.00;;;;;;932881;149;27411;-72
2023/09/13 08:05:28;;;;;;;3.12;2.60;;;24.90;95.90;;;;;;920521;152;27500;-75
2023/09/13 08:07:55;;;;;;;3.85;2.50;;;25.00;96.00;;;;;;915971;153;27483;-71
2023/09/13 08:10:24;;;;;;;3.08;2.80;;;25.10;95.90;;;;;;916726;152;27468;-73
2023/09/13 08:12:48;;;;;;;3.15;2.80;;;25.30;94.90;;;;;;915889;152;27391;-73
2023/09/13 08:15:14;;;;;;;3.72;2.72;;;25.40;94.40;;;;;;917333;152;27295;-74
2023/09/13 08:17:41;;;;;;;3.47;3.08;;;25.50;94.00;;;;;;917510;152;27758;-74
2023/09/13 08:20:10;;;;;;;2.83;2.52;;;25.70;93.40;;;;;;917133;152;27378;-73
2023/09/13 08:22:37;;;;;;;2.80;2.60;;;25.80;93.20;;;;;;916299;152;27315;-72
2023/09/13 08:25:04;;;;;;;2.60;2.40;;;26.00;92.70;;;;;;917717;152;27433;-73
2023/09/13 08:27:30;;;;;;;2.77;2.58;;;26.20;92.00;;;;;;917461;152;27465;-73
2023/09/13 08:29:57;;;;;;;4.47;2.60;;;26.40;91.30;;;;;;918196;151;27397;-73
2023/09/13 08:32:23;;;;;;;2.92;2.67;;;26.50;90.80;;;;;;917043;152;27455;-72
2023/09/13 08:34:50;;;;;;;3.15;2.60;;;26.70;90.20;;;;;;915850;152;27369;-73
2023/09/13 08:37:16;;;;;;;3.33;3.02;;;26.90;89.20;;;;;;917254;152;27691;-75
2023/09/13 08:39:43;;;;;;;4.87;3.55;;;27.00;87.80;;;;;;917995;152;27368;-75
2023/09/13 08:42:10;;;;;;;3.72;3.42;;;27.10;85.50;;;;;;918275;152;27366;-75
2023/09/13 08:44:36;;;;;;;3.47;3.17;;;27.20;83.50;;;;;;918494;151;27475;-75
2023/09/13 08:47:04;;;;;;;3.60;3.30;;;27.20;82.00;;;;;;917127;152;27387;-75
2023/09/13 08:49:29;;;;;;;3.50;3.22;;;27.20;80.50;;;;;;917124;152;27864;-75
2023/09/13 08:51:56;;;;;;;3.90;3.60;;;27.20;79.60;;;;;;915314;152;27359;-75
2023/09/13 08:54:22;;;;;;;3.27;3.08;;;27.20;78.60;;;;;;915739;152;27321;-75
2023/09/13 08:56:49;;;;;;;3.87;3.58;;;27.10;78.20;;;;;;917177;152;27337;-75
2023/09/13 08:59:16;;;;;;;3.67;3.37;;;26.90;77.90;;;;;;917029;152;27456;-75
2023/09/13 09:01:42;;;;;;;3.75;3.45;;;26.80;77.60;;;;;;915473;152;27375;-75
2023/09/13 09:04:09;;;;;;;4.70;3.25;;;26.70;77.70;;;;;;916057;152;27295;-75
2023/09/13 09:06:35;;;;;;;3.55;3.25;;;26.60;77.90;;;;;;936489;149;27419;-75
2023/09/13 09:09:04;;;;;;;4.00;3.67;;;26.50;78.50;;;;;;942847;149;27386;-75
2023/09/13 09:11:29;;;;;;;3.40;3.10;;;26.50;79.00;;;;;;941403;149;27360;-75
2023/09/13 09:13:55;;;;;;;3.12;2.87;;;26.40;79.20;;;;;;941801;149;27346;-75
2023/09/13 09:16:22;;;;;;;3.40;3.10;;;26.40;79.60;;;;;;949947;147;27397;-75
2023/09/13 09:18:48;;;;;;;3.77;2.90;;;26.30;79.50;;;;;;949922;147;27276;-75
2023/09/13 09:21:15;;;;;;;3.17;2.98;;;26.30;79.70;;;;;;951353;146;27339;-75
2023/09/13 09:23:41;;;;;;;3.50;3.20;;;26.30;80.00;;;;;;934882;149;27431;-75
2023/09/13 09:26:08;;;;;;;3.45;3.12;;;26.30;80.40;;;;;;948231;146;27400;-75
2023/09/13 09:28:35;;;;;;;3.83;3.08;;;26.30;80.30;;;;;;941040;149;27383;-75
2023/09/13 09:31:05;;;;;;;3.60;3.30;;;26.30;80.00;;;;;;936001;149;27409;-75
2023/09/13 09:33:31;;;;;;;3.10;2.90;;;26.20;79.60;;;;;;951460;146;27361;-75
2023/09/13 09:35:57;;;;;;;3.87;3.58;;;26.20;79.70;;;;;;934896;149;27374;-75
2023/09/13 09:38:24;;;;;;;3.27;2.83;;;26.20;80.40;;;;;;954279;146;27241;-75
2023/09/13 09:40:50;;;;;;;3.22;2.95;;;26.30;80.70;;;;;;941185;149;27468;-74
2023/09/13 09:43:17;;;;;;;3.15;2.85;;;26.30;80.90;;;;;;941279;149;27367;-75
2023/09/13 09:45:43;;;;;;;3.60;2.72;;;26.40;80.70;;;;;;940899;150;27354;-75
2023/09/13 09:48:10;;;;;;;3.00;2.50;;;26.40;81.10;;;;;;941482;149;27345;-75
2023/09/13 09:50:38;;;;;;;2.90;2.70;;;26.50;81.40;;;;;;942562;149;27397;-75
2023/09/13 09:53:09;;;;;;;2.75;2.55;;;26.60;82.30;;;;;;941613;148;27339;-75
2023/09/13 09:55:36;;;;;;;3.08;2.87;;;26.70;80.50;;;;;;941174;148;27318;-74
2023/09/13 09:58:03;;;;;;;3.05;2.60;;;26.90;79.20;;;;;;941470;149;27391;-75
2023/09/13 10:00:29;;;;;;;2.83;2.62;;;27.00;78.80;;;;;;942360;149;27295;-75
2023/09/13 10:02:56;;;;;;;3.25;2.95;;;27.10;78.00;;;;;;949617;146;27448;-75
2023/09/13 10:05:22;;;;;;;2.65;2.45;;;27.20;76.80;;;;;;950673;146;27333;-75
2023/09/13 10:07:49;;;;;;;3.25;2.95;;;27.30;76.00;;;;;;937049;149;27370;-75
2023/09/13 10:10:30;;;;;;;2.77;2.58;;;27.40;75.70;;;;;;938393;149;27338;-74
2023/09/13 10:12:54;;;;;;;2.52;2.33;;;27.50;75.10;;;;;;936671;149;27344;-75
2023/09/13 10:15:21;;;;;;;2.67;2.42;;;27.60;75.20;;;;;;935093;149;27474;-75
2023/09/13 10:17:48;;;;;;;2.70;2.50;;;27.80;75.10;;;;;;936862;149;27364;-75
2023/09/13 10:20:14;;;;;;;2.83;2.62;;;28.00;74.60;;;;;;946476;149;27364;-75
2023/09/13 10:22:41;;;;;;;3.17;2.52;;;28.20;74.30;;;;;;949222;148;27333;-75
2023/09/13 10:25:07;;;;;;;2.67;2.47;;;28.40;73.80;;;;;;947969;148;27470;-75
2023/09/13 10:27:34;;;;;;;2.60;2.40;;;28.60;73.00;;;;;;949310;148;27391;-75
2023/09/13 10:30:00;;;;;;;2.95;2.75;;;28.80;71.60;;;;;;948781;148;27271;-75
2023/09/13 10:32:27;;;;;;;2.42;2.22;;;29.00;70.50;;;;;;941255;149;27365;-75
2023/09/13 10:34:54;;;;;;;3.22;2.85;;;29.10;69.60;;;;;;940712;148;27426;-75
2023/09/13 10:37:35;;;;;;;2.50;2.30;;;29.10;68.90;;;;;;948097;147;27357;-74
2023/09/13 10:40:11;;;;;;;2.45;2.27;;;29.00;68.30;;;;;;932330;150;27286;-75
2023/09/13 10:42:40;;;;;;;2.77;2.58;;;28.90;68.00;;;;;;944330;148;27370;-75
2023/09/13 10:45:07;;;;;;;2.72;2.50;;;28.70;67.40;;;;;;938278;149;27835;-74
2023/09/13 10:47:33;;;;;;;2.50;2.30;;;28.60;67.10;;;;;;945515;148;28708;-74
2023/09/13 10:50:00;;;;;;;2.50;2.37;;;28.40;66.50;;;;;;940421;148;27422;-75
2023/09/13 10:52:26;;;;;;;2.55;2.35;;;28.30;66.30;;;;;;948058;148;27383;-75
2023/09/13 10:54:53;;;;;;;2.55;2.30;;;28.20;66.30;;;;;;948346;148;27403;-75
2023/09/13 10:57:20;;;;;;;2.60;2.40;;;28.00;66.30;;;;;;950340;148;27827;-75
2023/09/13 10:59:46;;;;;;;3.75;2.67;;;27.90;65.80;;;;;;949595;147;27427;-76
2023/09/13 11:02:13;;;;;;;2.75;2.55;;;27.70;66.90;;;;;;950191;148;27418;-76
2023/09/13 11:04:39;;;;;;;2.83;2.55;;;27.60;67.20;;;;;;948768;148;27332;-76
2023/09/13 11:07:06;;;;;;;2.50;2.30;;;27.50;67.50;;;;;;948047;147;27493;-75
2023/09/13 11:09:33;;;;;;;3.47;2.35;;;27.50;67.90;;;;;;932052;152;27317;-76
2023/09/13 11:11:59;;;;;;;2.75;2.40;;;27.40;68.00;;;;;;930863;152;27474;-76
2023/09/13 11:14:26;;;;;;;2.60;2.40;;;27.40;68.20;;;;;;933856;152;27416;-76
2023/09/13 11:16:52;;;;;;;2.65;2.45;;;27.40;68.40;;;;;;932892;151;27366;-76
2023/09/13 11:19:19;;;;;;;2.37;2.17;;;27.30;68.40;;;;;;933661;152;27367;-76
2023/09/13 11:21:49;;;;;;;2.50;2.10;;;27.30;68.50;;;;;;932359;152;27354;-76
2023/09/13 11:24:14;;;;;;;2.70;2.40;;;27.30;68.80;;;;;;934488;149;27355;-75
2023/09/13 11:26:46;;;;;;;4.28;2.50;;;27.40;69.00;;;;;;934682;151;27424;-75
2023/09/13 11:29:24;;;;;;;2.50;2.30;;;27.40;68.90;;;;;;932602;149;27418;-75
2023/09/13 11:32:00;;;;;;;2.30;2.20;;;27.40;68.90;;;;;;932488;151;27801;-76
2023/09/13 11:34:27;;;;;;;3.60;2.27;;;27.50;68.80;;;;;;933220;152;27343;-75
2023/09/13 11:37:00;;;;;;;2.37;2.17;;;27.50;68.70;;;;;;933252;152;27358;-75
2023/09/13 11:39:26;;;;;;;2.90;2.70;;;27.50;68.90;;;;;;933527;152;27323;-75
2023/09/13 11:41:53;;;;;;;2.75;2.55;;;27.50;68.40;;;;;;933066;152;27436;-75
2023/09/13 11:44:19;;;;;;;2.70;2.50;;;27.50;69.00;;;;;;932593;150;27965;-76
2023/09/13 11:46:45;;;;;;;2.58;2.37;;;27.60;68.40;;;;;;933578;149;27430;-76
2023/09/13 11:49:12;;;;;;;2.72;2.50;;;27.60;68.50;;;;;;933962;149;27795;-75
2023/09/13 11:51:38;;;;;;;3.52;2.75;;;27.60;68.40;;;;;;933595;151;27285;-76
2023/09/13 11:54:15;;;;;;;2.58;2.37;;;27.70;68.50;;;;;;931156;152;27472;-75
2023/09/13 11:56:43;;;;;;;3.00;2.05;;;27.70;68.50;;;;;;932685;150;27917;-75
2023/09/13 11:59:07;;;;;;;2.50;2.30;;;27.90;68.50;;;;;;931107;151;27502;-76
2023/09/13 12:01:34;;;;;;;2.35;2.25;;;28.00;68.40;;;;;;934809;151;27439;-76
2023/09/13 12:04:07;;;;;;;2.85;2.25;;;28.10;68.20;;;;;;933243;151;27358;-76
2023/09/13 12:06:31;;;;;;;2.30;2.10;;;28.30;68.10;;;;;;932371;150;27346;-73
2023/09/13 12:08:57;;;;;;;2.60;2.40;;;28.50;67.70;;;;;;939233;149;27451;-73
2023/09/13 12:11:23;;;;;;;2.62;2.42;;;28.60;66.90;;;;;;942338;148;27423;-73
2023/09/13 12:13:49;;;;;;;2.30;2.20;;;28.70;66.10;;;;;;943597;151;27379;-76
2023/09/13 12:16:16;;;;;;;2.62;2.33;;;28.80;65.30;;;;;;937193;148;27422;-72
2023/09/13 12:18:43;;;;;;;2.35;2.20;;;28.80;64.70;;;;;;934977;149;27259;-72
2023/09/13 12:21:09;;;;;;;2.52;2.33;;;28.90;64.80;;;;;;934780;149;27272;-75
2023/09/13 12:23:36;;;;;;;2.50;2.30;;;28.80;64.60;;;;;;933794;149;27444;-75
2023/09/13 12:26:05;;;;;;;2.90;1.98;;;28.80;64.40;;;;;;935793;148;27359;-72
2023/09/13 12:28:31;;;;;;;2.55;2.35;;;28.80;64.50;;;;;;934490;149;27459;-74
2023/09/13 12:30:58;;;;;;;2.72;2.40;;;28.80;64.40;;;;;;934389;149;27355;-73
2023/09/13 12:33:25;;;;;;;2.35;2.25;;;28.80;64.40;;;;;;935318;149;27448;-76
2023/09/13 12:35:51;;;;;;;2.67;2.47;;;28.80;64.40;;;;;;933968;148;27713;-73
2023/09/13 12:38:19;;;;;;;3.62;2.40;;;28.80;64.20;;;;;;935099;149;27424;-73
2023/09/13 12:40:47;;;;;;;2.58;2.37;;;28.90;64.40;;;;;;935757;149;27404;-73
2023/09/13 12:43:14;;;;;;;2.42;2.33;;;28.90;64.20;;;;;;934501;149;27452;-75
2023/09/13 12:45:41;;;;;;;2.47;2.27;;;29.00;64.20;;;;;;935168;149;27472;-72